sensor_id;sensor_type;location;lat;lon;timestamp;P1;durP1;ratioP1;P2;durP2;ratioP2
3726;SDS011;1879;45.876;12.300;2022-10-31T00:02:09;12.63;;;10.00;;
3726;SDS011;1879;45.876;12.300;2022-10-31T00:04:36;11.93;;;9.37;;
3726;SDS011;1879;45.876;12.300;2022-10-31T00:07:03;10.97;;;9.27;;
3726;SDS011;1879;45.876;12.300;2022-10-31T00:09:30;12.80;;;9.33;;
3726;SDS011;1879;45.876;12.300;2022-10-31T00:11:57;13.27;;;9.47;;
3726;SDS011;1879;45.876;12.300;2022-10-31T00:14:25;14.30;;;9.70;;
3726;SDS011;1879;45.876;12.300;2022-10-31T00:16:52;13.93;;;9.47;;
3726;SDS011;1879;45.876;12.300;2022-10-31T00:19:19;14.97;;;9.97;;
3726;SDS011;1879;45.876;12.300;2022-10-31T00:21:46;13.00;;;9.70;;
3726;SDS011;1879;45.876;12.300;2022-10-31T00:24:13;11.23;;;8.93;;
3726;SDS011;1879;45.876;12.300;2022-10-31T00:26:40;11.13;;;8.97;;
3726;SDS011;1879;45.876;12.300;2022-10-31T00:29:07;10.80;;;9.33;;
3726;SDS011;1879;45.876;12.300;2022-10-31T00:31:36;9.30;;;7.97;;
3726;SDS011;1879;45.876;12.300;2022-10-31T00:34:03;11.97;;;9.10;;
3726;SDS011;1879;45.876;12.300;2022-10-31T00:36:30;12.63;;;10.23;;
3726;SDS011;1879;45.876;12.300;2022-10-31T00:38:57;10.20;;;9.20;;
3726;SDS011;1879;45.876;12.300;2022-10-31T00:41:26;12.87;;;9.77;;
3726;SDS011;1879;45.876;12.300;2022-10-31T00:43:54;10.67;;;8.80;;
3726;SDS011;1879;45.876;12.300;2022-10-31T00:46:21;10.60;;;9.50;;
3726;SDS011;1879;45.876;12.300;2022-10-31T00:48:49;12.60;;;8.60;;
3726;SDS011;1879;45.876;12.300;2022-10-31T00:51:16;11.43;;;8.33;;
3726;SDS011;1879;45.876;12.300;2022-10-31T00:53:43;10.13;;;7.33;;
3726;SDS011;1879;45.876;12.300;2022-10-31T00:56:10;8.07;;;7.10;;
3726;SDS011;1879;45.876;12.300;2022-10-31T00:58:37;12.80;;;8.30;;
3726;SDS011;1879;45.876;12.300;2022-10-31T01:01:04;15.10;;;8.27;;
3726;SDS011;1879;45.876;12.300;2022-10-31T01:03:31;9.03;;;7.00;;
3726;SDS011;1879;45.876;12.300;2022-10-31T01:06:01;10.97;;;7.77;;
3726;SDS011;1879;45.876;12.300;2022-10-31T01:08:30;10.60;;;7.23;;
3726;SDS011;1879;45.876;12.300;2022-10-31T01:11:04;10.30;;;6.97;;
3726;SDS011;1879;45.876;12.300;2022-10-31T01:13:34;13.10;;;6.80;;
3726;SDS011;1879;45.876;12.300;2022-10-31T01:16:02;7.17;;;5.90;;
3726;SDS011;1879;45.876;12.300;2022-10-31T01:18:30;9.20;;;6.17;;
3726;SDS011;1879;45.876;12.300;2022-10-31T01:20:58;8.50;;;6.03;;
3726;SDS011;1879;45.876;12.300;2022-10-31T01:23:29;12.63;;;7.33;;
3726;SDS011;1879;45.876;12.300;2022-10-31T01:26:03;8.90;;;6.50;;
3726;SDS011;1879;45.876;12.300;2022-10-31T01:28:33;11.00;;;6.33;;
3726;SDS011;1879;45.876;12.300;2022-10-31T01:31:01;10.87;;;6.23;;
3726;SDS011;1879;45.876;12.300;2022-10-31T01:33:30;11.17;;;6.07;;
3726;SDS011;1879;45.876;12.300;2022-10-31T01:35:57;9.87;;;6.20;;
3726;SDS011;1879;45.876;12.300;2022-10-31T01:38:25;11.70;;;7.00;;
3726;SDS011;1879;45.876;12.300;2022-10-31T01:40:52;12.00;;;7.10;;
3726;SDS011;1879;45.876;12.300;2022-10-31T01:43:19;7.30;;;6.13;;
3726;SDS011;1879;45.876;12.300;2022-10-31T01:45:48;8.87;;;6.30;;
3726;SDS011;1879;45.876;12.300;2022-10-31T01:48:19;9.77;;;6.63;;
3726;SDS011;1879;45.876;12.300;2022-10-31T01:50:50;11.30;;;8.20;;
3726;SDS011;1879;45.876;12.300;2022-10-31T01:53:19;9.57;;;7.67;;
3726;SDS011;1879;45.876;12.300;2022-10-31T01:55:48;12.33;;;7.93;;
3726;SDS011;1879;45.876;12.300;2022-10-31T01:58:16;10.23;;;7.93;;
3726;SDS011;1879;45.876;12.300;2022-10-31T02:00:48;11.03;;;7.53;;
3726;SDS011;1879;45.876;12.300;2022-10-31T02:03:17;10.73;;;7.13;;
3726;SDS011;1879;45.876;12.300;2022-10-31T02:05:46;14.30;;;6.77;;
3726;SDS011;1879;45.876;12.300;2022-10-31T02:08:15;8.03;;;7.03;;
3726;SDS011;1879;45.876;12.300;2022-10-31T02:10:46;13.33;;;7.40;;
3726;SDS011;1879;45.876;12.300;2022-10-31T02:13:15;8.47;;;6.27;;
3726;SDS011;1879;45.876;12.300;2022-10-31T02:15:43;11.17;;;6.93;;
3726;SDS011;1879;45.876;12.300;2022-10-31T02:18:11;12.50;;;6.80;;
3726;SDS011;1879;45.876;12.300;2022-10-31T02:20:40;13.93;;;7.47;;
3726;SDS011;1879;45.876;12.300;2022-10-31T02:26:27;14.20;;;7.20;;
3726;SDS011;1879;45.876;12.300;2022-10-31T02:32:08;8.37;;;6.13;;
3726;SDS011;1879;45.876;12.300;2022-10-31T02:34:41;8.40;;;5.87;;
3726;SDS011;1879;45.876;12.300;2022-10-31T02:37:16;10.03;;;6.23;;
3726;SDS011;1879;45.876;12.300;2022-10-31T02:39:53;9.50;;;6.37;;
3726;SDS011;1879;45.876;12.300;2022-10-31T02:42:25;10.93;;;6.00;;
3726;SDS011;1879;45.876;12.300;2022-10-31T02:45:00;10.67;;;6.43;;
3726;SDS011;1879;45.876;12.300;2022-10-31T02:47:34;9.13;;;6.00;;
3726;SDS011;1879;45.876;12.300;2022-10-31T02:50:04;5.47;;;4.80;;
3726;SDS011;1879;45.876;12.300;2022-10-31T02:52:36;13.33;;;6.40;;
3726;SDS011;1879;45.876;12.300;2022-10-31T02:55:09;7.37;;;5.40;;
3726;SDS011;1879;45.876;12.300;2022-10-31T02:57:38;11.37;;;6.63;;
3726;SDS011;1879;45.876;12.300;2022-10-31T03:00:08;8.00;;;5.67;;
3726;SDS011;1879;45.876;12.300;2022-10-31T03:02:45;11.83;;;5.97;;
3726;SDS011;1879;45.876;12.300;2022-10-31T03:05:23;12.40;;;5.87;;
3726;SDS011;1879;45.876;12.300;2022-10-31T03:08:12;7.57;;;5.33;;
3726;SDS011;1879;45.876;12.300;2022-10-31T03:10:45;9.40;;;5.37;;
3726;SDS011;1879;45.876;12.300;2022-10-31T03:13:20;7.20;;;5.30;;
3726;SDS011;1879;45.876;12.300;2022-10-31T03:15:51;10.57;;;5.93;;
3726;SDS011;1879;45.876;12.300;2022-10-31T03:18:23;8.87;;;5.00;;
3726;SDS011;1879;45.876;12.300;2022-10-31T03:20:55;11.73;;;5.50;;
3726;SDS011;1879;45.876;12.300;2022-10-31T03:23:28;8.23;;;5.73;;
3726;SDS011;1879;45.876;12.300;2022-10-31T03:25:57;11.07;;;5.37;;
3726;SDS011;1879;45.876;12.300;2022-10-31T03:28:28;5.90;;;5.20;;
3726;SDS011;1879;45.876;12.300;2022-10-31T03:30:59;6.40;;;4.73;;
3726;SDS011;1879;45.876;12.300;2022-10-31T03:33:31;10.50;;;5.63;;
3726;SDS011;1879;45.876;12.300;2022-10-31T03:36:02;10.30;;;4.93;;
3726;SDS011;1879;45.876;12.300;2022-10-31T03:38:32;7.03;;;4.97;;
3726;SDS011;1879;45.876;12.300;2022-10-31T03:41:02;11.43;;;5.17;;
3726;SDS011;1879;45.876;12.300;2022-10-31T03:43:33;7.60;;;4.83;;
3726;SDS011;1879;45.876;12.300;2022-10-31T03:46:05;6.83;;;5.10;;
3726;SDS011;1879;45.876;12.300;2022-10-31T03:48:34;7.80;;;5.53;;
3726;SDS011;1879;45.876;12.300;2022-10-31T03:51:03;9.90;;;5.33;;
3726;SDS011;1879;45.876;12.300;2022-10-31T03:53:38;9.17;;;5.10;;
3726;SDS011;1879;45.876;12.300;2022-10-31T03:56:11;7.70;;;5.03;;
3726;SDS011;1879;45.876;12.300;2022-10-31T03:58:44;7.70;;;5.20;;
3726;SDS011;1879;45.876;12.300;2022-10-31T04:01:15;11.00;;;5.10;;
3726;SDS011;1879;45.876;12.300;2022-10-31T04:03:46;10.57;;;5.00;;
3726;SDS011;1879;45.876;12.300;2022-10-31T04:06:14;9.90;;;4.90;;
3726;SDS011;1879;45.876;12.300;2022-10-31T04:08:45;10.40;;;4.70;;
3726;SDS011;1879;45.876;12.300;2022-10-31T04:11:17;11.80;;;4.97;;
3726;SDS011;1879;45.876;12.300;2022-10-31T04:13:48;7.80;;;4.10;;
3726;SDS011;1879;45.876;12.300;2022-10-31T04:16:16;14.97;;;5.33;;
3726;SDS011;1879;45.876;12.300;2022-10-31T04:18:43;10.00;;;4.70;;
3726;SDS011;1879;45.876;12.300;2022-10-31T04:21:12;8.00;;;4.77;;
3726;SDS011;1879;45.876;12.300;2022-10-31T04:23:39;8.43;;;6.17;;
3726;SDS011;1879;45.876;12.300;2022-10-31T04:26:06;7.83;;;5.80;;
3726;SDS011;1879;45.876;12.300;2022-10-31T04:28:33;8.83;;;5.47;;
3726;SDS011;1879;45.876;12.300;2022-10-31T04:31:00;8.60;;;6.40;;
3726;SDS011;1879;45.876;12.300;2022-10-31T04:33:27;13.00;;;6.80;;
3726;SDS011;1879;45.876;12.300;2022-10-31T04:35:56;7.17;;;5.70;;
3726;SDS011;1879;45.876;12.300;2022-10-31T04:38:23;10.10;;;6.00;;
3726;SDS011;1879;45.876;12.300;2022-10-31T04:40:50;9.77;;;5.70;;
3726;SDS011;1879;45.876;12.300;2022-10-31T04:43:17;11.20;;;5.80;;
3726;SDS011;1879;45.876;12.300;2022-10-31T04:45:44;7.03;;;5.87;;
3726;SDS011;1879;45.876;12.300;2022-10-31T04:48:11;8.47;;;5.83;;
3726;SDS011;1879;45.876;12.300;2022-10-31T04:50:38;12.30;;;7.00;;
3726;SDS011;1879;45.876;12.300;2022-10-31T04:53:06;8.10;;;5.20;;
3726;SDS011;1879;45.876;12.300;2022-10-31T04:55:34;10.90;;;5.70;;
3726;SDS011;1879;45.876;12.300;2022-10-31T04:58:01;9.77;;;4.97;;
3726;SDS011;1879;45.876;12.300;2022-10-31T05:00:28;9.93;;;6.10;;
3726;SDS011;1879;45.876;12.300;2022-10-31T05:02:56;8.23;;;5.67;;
3726;SDS011;1879;45.876;12.300;2022-10-31T05:05:24;9.73;;;5.40;;
3726;SDS011;1879;45.876;12.300;2022-10-31T05:07:52;8.50;;;5.13;;
3726;SDS011;1879;45.876;12.300;2022-10-31T05:10:24;9.40;;;5.70;;
3726;SDS011;1879;45.876;12.300;2022-10-31T05:12:53;9.83;;;5.43;;
3726;SDS011;1879;45.876;12.300;2022-10-31T05:15:21;8.60;;;5.50;;
3726;SDS011;1879;45.876;12.300;2022-10-31T05:17:49;8.57;;;6.00;;
3726;SDS011;1879;45.876;12.300;2022-10-31T05:20:18;7.27;;;5.33;;
3726;SDS011;1879;45.876;12.300;2022-10-31T05:22:46;9.80;;;5.73;;
3726;SDS011;1879;45.876;12.300;2022-10-31T05:25:14;7.80;;;5.50;;
3726;SDS011;1879;45.876;12.300;2022-10-31T05:27:43;9.00;;;5.60;;
3726;SDS011;1879;45.876;12.300;2022-10-31T05:30:12;9.20;;;4.93;;
3726;SDS011;1879;45.876;12.300;2022-10-31T05:32:44;8.77;;;5.60;;
3726;SDS011;1879;45.876;12.300;2022-10-31T05:35:13;6.80;;;5.17;;
3726;SDS011;1879;45.876;12.300;2022-10-31T05:37:40;8.80;;;4.87;;
3726;SDS011;1879;45.876;12.300;2022-10-31T05:40:08;8.03;;;5.50;;
3726;SDS011;1879;45.876;12.300;2022-10-31T05:42:37;7.53;;;5.57;;
3726;SDS011;1879;45.876;12.300;2022-10-31T05:45:07;8.27;;;5.23;;
3726;SDS011;1879;45.876;12.300;2022-10-31T05:47:34;9.93;;;5.33;;
3726;SDS011;1879;45.876;12.300;2022-10-31T05:50:01;8.70;;;5.17;;
3726;SDS011;1879;45.876;12.300;2022-10-31T05:52:29;12.47;;;5.53;;
3726;SDS011;1879;45.876;12.300;2022-10-31T05:54:56;10.87;;;5.30;;
3726;SDS011;1879;45.876;12.300;2022-10-31T05:57:23;8.47;;;5.83;;
3726;SDS011;1879;45.876;12.300;2022-10-31T05:59:50;9.73;;;6.17;;
3726;SDS011;1879;45.876;12.300;2022-10-31T06:02:19;12.93;;;6.60;;
3726;SDS011;1879;45.876;12.300;2022-10-31T06:04:46;10.77;;;6.90;;
3726;SDS011;1879;45.876;12.300;2022-10-31T06:07:13;5.87;;;5.23;;
3726;SDS011;1879;45.876;12.300;2022-10-31T06:09:40;8.17;;;5.63;;
3726;SDS011;1879;45.876;12.300;2022-10-31T06:12:07;10.03;;;6.10;;
3726;SDS011;1879;45.876;12.300;2022-10-31T06:14:34;7.80;;;6.17;;
3726;SDS011;1879;45.876;12.300;2022-10-31T06:17:01;11.63;;;6.73;;
3726;SDS011;1879;45.876;12.300;2022-10-31T06:19:29;11.73;;;6.40;;
3726;SDS011;1879;45.876;12.300;2022-10-31T06:21:56;9.60;;;6.53;;
3726;SDS011;1879;45.876;12.300;2022-10-31T06:24:23;9.93;;;7.30;;
3726;SDS011;1879;45.876;12.300;2022-10-31T06:26:50;9.53;;;7.60;;
3726;SDS011;1879;45.876;12.300;2022-10-31T06:29:17;13.63;;;6.47;;
3726;SDS011;1879;45.876;12.300;2022-10-31T06:31:44;13.23;;;7.20;;
3726;SDS011;1879;45.876;12.300;2022-10-31T06:34:11;10.20;;;6.97;;
3726;SDS011;1879;45.876;12.300;2022-10-31T06:36:39;9.93;;;7.50;;
3726;SDS011;1879;45.876;12.300;2022-10-31T06:39:06;16.57;;;8.00;;
3726;SDS011;1879;45.876;12.300;2022-10-31T06:41:33;12.40;;;7.57;;
3726;SDS011;1879;45.876;12.300;2022-10-31T06:44:01;12.23;;;8.67;;
3726;SDS011;1879;45.876;12.300;2022-10-31T06:46:29;12.93;;;7.90;;
3726;SDS011;1879;45.876;12.300;2022-10-31T06:48:56;13.30;;;8.17;;
3726;SDS011;1879;45.876;12.300;2022-10-31T06:51:22;12.17;;;8.63;;
3726;SDS011;1879;45.876;12.300;2022-10-31T06:53:51;11.07;;;8.20;;
3726;SDS011;1879;45.876;12.300;2022-10-31T06:56:18;11.70;;;8.37;;
3726;SDS011;1879;45.876;12.300;2022-10-31T06:58:45;14.33;;;9.07;;
3726;SDS011;1879;45.876;12.300;2022-10-31T07:01:12;12.43;;;8.80;;
3726;SDS011;1879;45.876;12.300;2022-10-31T07:03:39;15.73;;;8.50;;
3726;SDS011;1879;45.876;12.300;2022-10-31T07:06:06;12.20;;;8.97;;
3726;SDS011;1879;45.876;12.300;2022-10-31T07:08:33;15.47;;;9.20;;
3726;SDS011;1879;45.876;12.300;2022-10-31T07:11:01;11.07;;;7.97;;
3726;SDS011;1879;45.876;12.300;2022-10-31T07:13:28;19.10;;;9.47;;
3726;SDS011;1879;45.876;12.300;2022-10-31T07:15:59;16.23;;;9.40;;
3726;SDS011;1879;45.876;12.300;2022-10-31T07:18:27;15.50;;;10.43;;
3726;SDS011;1879;45.876;12.300;2022-10-31T07:20:54;10.40;;;9.10;;
3726;SDS011;1879;45.876;12.300;2022-10-31T07:23:21;14.23;;;9.50;;
3726;SDS011;1879;45.876;12.300;2022-10-31T07:25:48;12.80;;;10.03;;
3726;SDS011;1879;45.876;12.300;2022-10-31T07:28:21;10.80;;;9.60;;
3726;SDS011;1879;45.876;12.300;2022-10-31T07:30:49;15.17;;;8.97;;
3726;SDS011;1879;45.876;12.300;2022-10-31T07:33:17;11.23;;;9.50;;
3726;SDS011;1879;45.876;12.300;2022-10-31T07:35:44;19.20;;;11.27;;
3726;SDS011;1879;45.876;12.300;2022-10-31T07:38:11;18.90;;;10.20;;
3726;SDS011;1879;45.876;12.300;2022-10-31T07:40:39;13.90;;;9.73;;
3726;SDS011;1879;45.876;12.300;2022-10-31T07:43:10;15.27;;;9.90;;
3726;SDS011;1879;45.876;12.300;2022-10-31T07:45:39;17.30;;;9.27;;
3726;SDS011;1879;45.876;12.300;2022-10-31T07:48:07;13.10;;;7.97;;
3726;SDS011;1879;45.876;12.300;2022-10-31T07:50:33;14.70;;;9.30;;
3726;SDS011;1879;45.876;12.300;2022-10-31T07:53:01;14.00;;;9.20;;
3726;SDS011;1879;45.876;12.300;2022-10-31T07:55:30;12.70;;;9.03;;
3726;SDS011;1879;45.876;12.300;2022-10-31T07:57:57;12.20;;;9.30;;
3726;SDS011;1879;45.876;12.300;2022-10-31T08:00:25;8.37;;;6.50;;
3726;SDS011;1879;45.876;12.300;2022-10-31T08:03:00;11.93;;;8.37;;
3726;SDS011;1879;45.876;12.300;2022-10-31T08:05:28;11.60;;;7.80;;
3726;SDS011;1879;45.876;12.300;2022-10-31T08:07:56;11.80;;;7.57;;
3726;SDS011;1879;45.876;12.300;2022-10-31T08:10:23;22.13;;;8.47;;
3726;SDS011;1879;45.876;12.300;2022-10-31T08:12:57;18.07;;;8.17;;
3726;SDS011;1879;45.876;12.300;2022-10-31T08:15:25;10.50;;;7.70;;
3726;SDS011;1879;45.876;12.300;2022-10-31T08:17:53;11.33;;;7.73;;
3726;SDS011;1879;45.876;12.300;2022-10-31T08:20:21;14.00;;;8.53;;
3726;SDS011;1879;45.876;12.300;2022-10-31T08:22:52;11.37;;;7.40;;
3726;SDS011;1879;45.876;12.300;2022-10-31T08:25:20;10.20;;;7.20;;
3726;SDS011;1879;45.876;12.300;2022-10-31T08:27:50;12.53;;;7.83;;
3726;SDS011;1879;45.876;12.300;2022-10-31T08:30:18;12.73;;;7.00;;
3726;SDS011;1879;45.876;12.300;2022-10-31T08:32:45;14.77;;;9.10;;
3726;SDS011;1879;45.876;12.300;2022-10-31T08:35:12;10.67;;;7.70;;
3726;SDS011;1879;45.876;12.300;2022-10-31T08:37:41;11.07;;;8.00;;
3726;SDS011;1879;45.876;12.300;2022-10-31T08:40:08;15.43;;;7.10;;
3726;SDS011;1879;45.876;12.300;2022-10-31T08:42:38;12.93;;;7.57;;
3726;SDS011;1879;45.876;12.300;2022-10-31T08:45:05;10.40;;;7.90;;
3726;SDS011;1879;45.876;12.300;2022-10-31T08:47:32;12.93;;;7.13;;
3726;SDS011;1879;45.876;12.300;2022-10-31T08:49:59;13.30;;;7.30;;
3726;SDS011;1879;45.876;12.300;2022-10-31T08:52:26;13.00;;;7.40;;
3726;SDS011;1879;45.876;12.300;2022-10-31T08:54:54;11.97;;;8.67;;
3726;SDS011;1879;45.876;12.300;2022-10-31T08:57:21;10.40;;;7.50;;
3726;SDS011;1879;45.876;12.300;2022-10-31T08:59:48;10.10;;;7.30;;
3726;SDS011;1879;45.876;12.300;2022-10-31T09:02:15;19.00;;;7.17;;
3726;SDS011;1879;45.876;12.300;2022-10-31T09:04:42;12.60;;;7.40;;
3726;SDS011;1879;45.876;12.300;2022-10-31T09:07:09;9.50;;;7.90;;
3726;SDS011;1879;45.876;12.300;2022-10-31T09:09:36;10.70;;;7.07;;
3726;SDS011;1879;45.876;12.300;2022-10-31T09:12:05;17.03;;;7.83;;
3726;SDS011;1879;45.876;12.300;2022-10-31T09:14:32;9.93;;;6.77;;
3726;SDS011;1879;45.876;12.300;2022-10-31T09:16:59;11.23;;;8.60;;
3726;SDS011;1879;45.876;12.300;2022-10-31T09:19:26;10.80;;;7.87;;
3726;SDS011;1879;45.876;12.300;2022-10-31T09:21:53;11.33;;;7.10;;
3726;SDS011;1879;45.876;12.300;2022-10-31T09:24:20;13.23;;;6.73;;
3726;SDS011;1879;45.876;12.300;2022-10-31T09:26:47;16.07;;;7.63;;
3726;SDS011;1879;45.876;12.300;2022-10-31T09:29:15;11.50;;;7.10;;
3726;SDS011;1879;45.876;12.300;2022-10-31T09:31:42;9.90;;;6.77;;
3726;SDS011;1879;45.876;12.300;2022-10-31T09:34:09;13.93;;;6.80;;
3726;SDS011;1879;45.876;12.300;2022-10-31T09:36:36;10.60;;;6.73;;
3726;SDS011;1879;45.876;12.300;2022-10-31T09:39:04;9.73;;;6.57;;
3726;SDS011;1879;45.876;12.300;2022-10-31T09:41:35;9.20;;;6.27;;
3726;SDS011;1879;45.876;12.300;2022-10-31T09:44:18;14.00;;;6.97;;
3726;SDS011;1879;45.876;12.300;2022-10-31T09:46:52;12.83;;;6.50;;
3726;SDS011;1879;45.876;12.300;2022-10-31T09:49:28;15.67;;;6.10;;
3726;SDS011;1879;45.876;12.300;2022-10-31T09:52:03;10.13;;;5.67;;
3726;SDS011;1879;45.876;12.300;2022-10-31T09:54:37;11.93;;;6.53;;
3726;SDS011;1879;45.876;12.300;2022-10-31T09:57:10;12.83;;;8.73;;
3726;SDS011;1879;45.876;12.300;2022-10-31T09:59:43;8.40;;;7.00;;
3726;SDS011;1879;45.876;12.300;2022-10-31T10:02:13;14.40;;;6.43;;
3726;SDS011;1879;45.876;12.300;2022-10-31T10:04:46;15.63;;;7.63;;
3726;SDS011;1879;45.876;12.300;2022-10-31T10:07:20;12.80;;;6.03;;
3726;SDS011;1879;45.876;12.300;2022-10-31T10:09:53;7.33;;;4.77;;
3726;SDS011;1879;45.876;12.300;2022-10-31T10:12:23;11.73;;;5.63;;
3726;SDS011;1879;45.876;12.300;2022-10-31T10:15:15;8.27;;;6.70;;
3726;SDS011;1879;45.876;12.300;2022-10-31T10:18:09;15.13;;;6.50;;
3726;SDS011;1879;45.876;12.300;2022-10-31T10:20:49;11.70;;;6.40;;
3726;SDS011;1879;45.876;12.300;2022-10-31T10:23:35;10.90;;;6.20;;
3726;SDS011;1879;45.876;12.300;2022-10-31T10:26:12;14.53;;;5.97;;
3726;SDS011;1879;45.876;12.300;2022-10-31T10:28:44;8.90;;;5.53;;
3726;SDS011;1879;45.876;12.300;2022-10-31T10:31:15;9.80;;;6.17;;
3726;SDS011;1879;45.876;12.300;2022-10-31T10:33:46;17.03;;;6.50;;
3726;SDS011;1879;45.876;12.300;2022-10-31T10:36:27;11.73;;;7.07;;
3726;SDS011;1879;45.876;12.300;2022-10-31T10:39:02;10.93;;;6.47;;
3726;SDS011;1879;45.876;12.300;2022-10-31T10:41:31;12.17;;;6.43;;
3726;SDS011;1879;45.876;12.300;2022-10-31T10:43:59;12.33;;;5.87;;
3726;SDS011;1879;45.876;12.300;2022-10-31T10:46:28;12.13;;;6.30;;
3726;SDS011;1879;45.876;12.300;2022-10-31T10:49:24;11.83;;;5.97;;
3726;SDS011;1879;45.876;12.300;2022-10-31T10:51:58;8.57;;;6.37;;
3726;SDS011;1879;45.876;12.300;2022-10-31T10:57:27;9.53;;;5.80;;
3726;SDS011;1879;45.876;12.300;2022-10-31T11:00:17;9.47;;;5.90;;
3726;SDS011;1879;45.876;12.300;2022-10-31T11:02:47;7.00;;;5.33;;
3726;SDS011;1879;45.876;12.300;2022-10-31T11:05:18;9.70;;;5.73;;
3726;SDS011;1879;45.876;12.300;2022-10-31T11:07:50;10.23;;;6.60;;
3726;SDS011;1879;45.876;12.300;2022-10-31T11:10:17;10.03;;;6.43;;
3726;SDS011;1879;45.876;12.300;2022-10-31T11:12:45;7.73;;;5.50;;
3726;SDS011;1879;45.876;12.300;2022-10-31T11:15:26;11.10;;;6.00;;
3726;SDS011;1879;45.876;12.300;2022-10-31T11:17:56;12.40;;;6.40;;
3726;SDS011;1879;45.876;12.300;2022-10-31T11:20:28;9.83;;;6.30;;
3726;SDS011;1879;45.876;12.300;2022-10-31T11:23:01;9.07;;;5.80;;
3726;SDS011;1879;45.876;12.300;2022-10-31T11:25:31;9.30;;;5.53;;
3726;SDS011;1879;45.876;12.300;2022-10-31T11:27:58;10.63;;;5.50;;
3726;SDS011;1879;45.876;12.300;2022-10-31T11:30:26;10.57;;;5.70;;
3726;SDS011;1879;45.876;12.300;2022-10-31T11:32:53;6.70;;;4.20;;
3726;SDS011;1879;45.876;12.300;2022-10-31T11:35:22;5.90;;;4.80;;
3726;SDS011;1879;45.876;12.300;2022-10-31T11:37:51;8.63;;;5.83;;
3726;SDS011;1879;45.876;12.300;2022-10-31T11:40:20;7.50;;;4.83;;
3726;SDS011;1879;45.876;12.300;2022-10-31T11:42:50;8.33;;;4.83;;
3726;SDS011;1879;45.876;12.300;2022-10-31T11:45:27;9.93;;;5.77;;
3726;SDS011;1879;45.876;12.300;2022-10-31T11:47:56;9.97;;;5.53;;
3726;SDS011;1879;45.876;12.300;2022-10-31T11:50:28;9.80;;;4.87;;
3726;SDS011;1879;45.876;12.300;2022-10-31T11:52:59;8.07;;;4.90;;
3726;SDS011;1879;45.876;12.300;2022-10-31T11:55:31;6.93;;;5.47;;
3726;SDS011;1879;45.876;12.300;2022-10-31T11:57:59;7.63;;;4.87;;
3726;SDS011;1879;45.876;12.300;2022-10-31T12:00:26;12.67;;;5.73;;
3726;SDS011;1879;45.876;12.300;2022-10-31T12:03:06;7.80;;;4.03;;
3726;SDS011;1879;45.876;12.300;2022-10-31T12:05:39;7.70;;;4.20;;
3726;SDS011;1879;45.876;12.300;2022-10-31T12:08:10;7.10;;;4.57;;
3726;SDS011;1879;45.876;12.300;2022-10-31T12:10:40;9.10;;;4.70;;
3726;SDS011;1879;45.876;12.300;2022-10-31T12:13:17;8.30;;;4.83;;
3726;SDS011;1879;45.876;12.300;2022-10-31T12:15:58;6.47;;;4.73;;
3726;SDS011;1879;45.876;12.300;2022-10-31T12:18:40;8.00;;;4.23;;
3726;SDS011;1879;45.876;12.300;2022-10-31T12:21:30;9.10;;;4.70;;
3726;SDS011;1879;45.876;12.300;2022-10-31T12:24:08;7.33;;;4.83;;
3726;SDS011;1879;45.876;12.300;2022-10-31T12:26:45;7.17;;;5.20;;
3726;SDS011;1879;45.876;12.300;2022-10-31T12:29:27;7.30;;;4.73;;
3726;SDS011;1879;45.876;12.300;2022-10-31T12:32:14;7.60;;;4.53;;
3726;SDS011;1879;45.876;12.300;2022-10-31T12:34:55;5.27;;;4.37;;
3726;SDS011;1879;45.876;12.300;2022-10-31T12:37:48;9.60;;;4.50;;
3726;SDS011;1879;45.876;12.300;2022-10-31T12:40:36;7.03;;;4.50;;
3726;SDS011;1879;45.876;12.300;2022-10-31T12:43:18;12.80;;;4.70;;
3726;SDS011;1879;45.876;12.300;2022-10-31T12:45:54;6.40;;;4.33;;
3726;SDS011;1879;45.876;12.300;2022-10-31T12:51:11;6.90;;;4.70;;
3726;SDS011;1879;45.876;12.300;2022-10-31T12:53:49;9.87;;;5.23;;
3726;SDS011;1879;45.876;12.300;2022-10-31T12:56:47;10.70;;;4.87;;
3726;SDS011;1879;45.876;12.300;2022-10-31T12:59:21;6.63;;;4.20;;
3726;SDS011;1879;45.876;12.300;2022-10-31T13:01:55;7.47;;;4.40;;
3726;SDS011;1879;45.876;12.300;2022-10-31T13:04:28;9.10;;;5.00;;
3726;SDS011;1879;45.876;12.300;2022-10-31T13:07:05;5.57;;;4.03;;
3726;SDS011;1879;45.876;12.300;2022-10-31T13:09:45;9.87;;;3.80;;
3726;SDS011;1879;45.876;12.300;2022-10-31T13:12:17;10.17;;;5.10;;
3726;SDS011;1879;45.876;12.300;2022-10-31T13:14:47;7.50;;;4.07;;
3726;SDS011;1879;45.876;12.300;2022-10-31T13:17:20;5.33;;;3.80;;
3726;SDS011;1879;45.876;12.300;2022-10-31T13:19:53;8.53;;;3.90;;
3726;SDS011;1879;45.876;12.300;2022-10-31T13:22:24;6.07;;;4.27;;
3726;SDS011;1879;45.876;12.300;2022-10-31T13:24:57;7.60;;;4.17;;
3726;SDS011;1879;45.876;12.300;2022-10-31T13:27:30;9.13;;;4.70;;
3726;SDS011;1879;45.876;12.300;2022-10-31T13:30:03;6.60;;;4.77;;
3726;SDS011;1879;45.876;12.300;2022-10-31T13:32:36;8.43;;;4.93;;
3726;SDS011;1879;45.876;12.300;2022-10-31T13:35:08;8.67;;;4.40;;
3726;SDS011;1879;45.876;12.300;2022-10-31T13:37:57;5.30;;;3.77;;
3726;SDS011;1879;45.876;12.300;2022-10-31T13:40:35;11.80;;;5.80;;
3726;SDS011;1879;45.876;12.300;2022-10-31T13:43:11;9.47;;;4.00;;
3726;SDS011;1879;45.876;12.300;2022-10-31T13:45:48;8.77;;;4.23;;
3726;SDS011;1879;45.876;12.300;2022-10-31T13:48:32;7.70;;;4.40;;
3726;SDS011;1879;45.876;12.300;2022-10-31T13:51:02;7.87;;;4.23;;
3726;SDS011;1879;45.876;12.300;2022-10-31T13:53:36;9.27;;;4.40;;
3726;SDS011;1879;45.876;12.300;2022-10-31T13:56:12;6.93;;;4.50;;
3726;SDS011;1879;45.876;12.300;2022-10-31T13:59:00;10.83;;;4.13;;
3726;SDS011;1879;45.876;12.300;2022-10-31T14:01:49;9.30;;;4.27;;
3726;SDS011;1879;45.876;12.300;2022-10-31T14:04:18;8.20;;;4.30;;
3726;SDS011;1879;45.876;12.300;2022-10-31T14:06:50;10.33;;;4.53;;
3726;SDS011;1879;45.876;12.300;2022-10-31T14:09:20;7.77;;;4.33;;
3726;SDS011;1879;45.876;12.300;2022-10-31T14:11:50;7.47;;;4.43;;
3726;SDS011;1879;45.876;12.300;2022-10-31T14:14:18;8.67;;;4.73;;
3726;SDS011;1879;45.876;12.300;2022-10-31T14:16:52;10.27;;;5.17;;
3726;SDS011;1879;45.876;12.300;2022-10-31T14:19:20;12.10;;;5.10;;
3726;SDS011;1879;45.876;12.300;2022-10-31T14:21:48;11.17;;;4.97;;
3726;SDS011;1879;45.876;12.300;2022-10-31T14:24:28;10.63;;;5.33;;
3726;SDS011;1879;45.876;12.300;2022-10-31T14:26:58;9.60;;;4.80;;
3726;SDS011;1879;45.876;12.300;2022-10-31T14:29:26;11.80;;;5.60;;
3726;SDS011;1879;45.876;12.300;2022-10-31T14:32:05;11.07;;;5.80;;
3726;SDS011;1879;45.876;12.300;2022-10-31T14:34:37;5.13;;;4.00;;
3726;SDS011;1879;45.876;12.300;2022-10-31T14:37:18;9.00;;;5.60;;
3726;SDS011;1879;45.876;12.300;2022-10-31T14:39:51;11.53;;;4.97;;
3726;SDS011;1879;45.876;12.300;2022-10-31T14:42:25;10.93;;;6.40;;
3726;SDS011;1879;45.876;12.300;2022-10-31T14:44:57;14.53;;;6.63;;
3726;SDS011;1879;45.876;12.300;2022-10-31T14:47:31;8.67;;;4.93;;
3726;SDS011;1879;45.876;12.300;2022-10-31T14:50:07;8.10;;;5.47;;
3726;SDS011;1879;45.876;12.300;2022-10-31T14:52:37;9.93;;;5.40;;
3726;SDS011;1879;45.876;12.300;2022-10-31T14:55:06;8.60;;;5.90;;
3726;SDS011;1879;45.876;12.300;2022-10-31T14:57:43;7.53;;;5.03;;
3726;SDS011;1879;45.876;12.300;2022-10-31T15:00:18;10.00;;;5.50;;
3726;SDS011;1879;45.876;12.300;2022-10-31T15:02:48;9.67;;;7.30;;
3726;SDS011;1879;45.876;12.300;2022-10-31T15:05:23;10.80;;;8.50;;
3726;SDS011;1879;45.876;12.300;2022-10-31T15:07:53;10.40;;;8.97;;
3726;SDS011;1879;45.876;12.300;2022-10-31T15:10:22;17.43;;;10.70;;
3726;SDS011;1879;45.876;12.300;2022-10-31T15:12:51;16.10;;;9.97;;
3726;SDS011;1879;45.876;12.300;2022-10-31T15:15:19;14.43;;;9.93;;
3726;SDS011;1879;45.876;12.300;2022-10-31T15:17:48;14.13;;;9.90;;
3726;SDS011;1879;45.876;12.300;2022-10-31T15:20:18;13.07;;;10.23;;
3726;SDS011;1879;45.876;12.300;2022-10-31T15:22:47;16.87;;;10.40;;
3726;SDS011;1879;45.876;12.300;2022-10-31T15:25:17;13.30;;;9.87;;
3726;SDS011;1879;45.876;12.300;2022-10-31T15:27:45;16.30;;;9.90;;